Estación Meteorológica Peña el Pijo (Robertgarden) [ 05/25/19 22:46:43 CEST ]

Fecha Hora Presion(HPa) Temp (°C) Humedad % Rocio (°C) Viento ( m/s) Direccion Lluvia 1Hora(mm) Lluvia 24H(mm) LLuvia Total(mm)
2019-May-24 01:01:42 1008.600 17.1 68 11.1         318.05
2019-May-24 02:01:52 1007.800 18.4 70 12.9         318.05
2019-May-24 03:01:43 1007.200 17.3 70 11.8         318.05
2019-May-24 04:03:09 1006.600 17.9 68 11.9         318.05
2019-May-24 05:01:41 1006.200 16.6 62 9.3         318.05
2019-May-24 06:01:39 1006.300 16.1 67 10.0         318.05
2019-May-24 07:01:56 1005.800 15.2 68 9.3         318.05
2019-May-24 08:01:51 1005.600 15.6 73 10.8         318.05
2019-May-24 09:01:39 1005.600 16.4 68 10.5         318.05
2019-May-24 10:01:50 1005.400 17.9 62 10.5         318.05
2019-May-24 11:01:38 1005.300 20.9 52 10.7         318.05
2019-May-24 12:01:52 1005.300 21.8 44 8.9         318.05
2019-May-24 13:01:49 1004.900 27.3 34 10.0         318.05
2019-May-24 14:01:46 1004.400 24.6 33 7.2         318.05
2019-May-24 15:01:50 1003.800 27.2 29 7.6         318.05
2019-May-24 16:01:35 1003.400 29.1 25 6.8         318.05
2019-May-24 17:01:47 1003.500 23.6 35 7.0         318.05
2019-May-24 18:01:41 1003.000 22.1 43 8.9 3.2 WNW     318.05
2019-May-24 19:01:53 1005.200 17.9 57 9.2         318.05
2019-May-24 20:01:39 1005.500 15.9 59 7.9         318.05
2019-May-24 21:01:41 1006.200 15.8 62 8.6         318.05
2019-May-24 22:01:50 1006.800 17.8 70 12.3         318.05
2019-May-24 23:01:46 1007.300 16.6 73 11.7         318.05

Temperatura Máxima:29°    Temperatura Mínima:15°
Presión Máxima:1008.600 Hpa    Presión Mínima:1003.000 Hpa


Volver